Onweer radar Meer informatie blitzortung!


Regen radar Meer informatie rain snow radar


Bezoek ook deze websites:

Template documentation
and downloads

And another site


Wind van: 29-02-2020 15:00 tot: 18:00 waarschuwing voor: Wind niveau: Geel info button

METAR rapporten vliegvelden


Warning: A non-numeric value encountered in /var/www/vhosts/meteotuikwerd.nl/httpdocs/weather28/metar/metarDisplay.php on line 166

Warning: A non-numeric value encountered in /var/www/vhosts/meteotuikwerd.nl/httpdocs/weather28/metar/metarDisplay.php on line 166
   
EHVK - Volkel Rnlafb, Netherlands
Afstand tot: ZW 18 km
Gewijzigd: Feb 29 2020 8:25 am
Bewolking  
Bewolking  
   Wind: Zuiden 24.1 km/h
Wind: Zuiden 24.1 km/h
Temperatuur: 9°C
Voelt als: 6°C
Dauwpunt: 6°C
Vochtigheid: 82%
Barometer: 993 hPa
Bewolking: Bewolking
Zicht: meer dan 10 km
Bewolking: Bewolking 5181.6 m
EHVK 290725Z AUTO 19013KT 160V230 9999 OVC170 09/06 Q0993 BLU
EDLV - Niederrhein, Germany
Afstand tot: ZO 25 km
Gewijzigd: Feb 29 2020 8:20 am
Helder  
Helder  
   Wind: Zuiden 24.1 km/h
Wind: Zuiden 24.1 km/h
Temperatuur: 9°C
Voelt als: 6°C
Dauwpunt: 6°C
Vochtigheid: 82%
Barometer: 993 hPa
Zicht: meer dan 10 km
Bewolking: Helder
EDLV 290720Z 19013KT 170V230 CAVOK 09/06 Q0993
EHDL - Deelen Rnlafb, Netherlands
Afstand tot: N 35 km
Gewijzigd: Feb 29 2020 8:25 am
Bewolking  
Bewolking  
   Wind: Zuiden 25.9 km/h
Wind: Zuiden 25.9 km/h
Temperatuur: 9°C
Voelt als: 6°C
Dauwpunt: 6°C
Vochtigheid: 82%
Barometer: 992 hPa
Bewolking: Bewolking
Zicht: meer dan 10 km
Bewolking: Bewolking 4267.2 m
EHDL 290725Z AUTO 19014KT 130V250 9999 OVC140 09/06 Q0992 BLU
EHEH - Eindhoven Rnlafb, Netherlands
Afstand tot: ZW 48 km
Gewijzigd: Feb 29 2020 8:25 am
Bewolking  
Bewolking  
   Wind: Zuiden 24.1 km/h
Wind: Zuiden 24.1 km/h
Temperatuur: 9°C
Voelt als: 6°C
Dauwpunt: 6°C
Vochtigheid: 82%
Barometer: 993 hPa
Bewolking: Bewolking
Zicht: meer dan 10 km
Bewolking: Licht bewolkt 5181.6 m,
Bewolking 7010.4 m
EHEH 290725Z AUTO 18013KT 150V210 9999 FEW170 OVC230 09/06 Q0993 BLU 20015G25KT 9999 SCT025
EHGR - Gilze-Rijen Rnla, Netherlands
Afstand tot: WZW 70 km
Gewijzigd: Feb 29 2020 8:25 am
Bewolking  
Bewolking  
   Wind: Zuiden 25.9 km/h
Wind: Zuiden 25.9 km/h
Temperatuur: 9°C
Voelt als: 6°C
Dauwpunt: 6°C
Vochtigheid: 82%
Barometer: 991 hPa
Bewolking: Bewolking
Zicht: meer dan 10 km
Bewolking: Grotendeels bewolkt 6096 m,
Bewolking 8229.6 m
EHGR 290725Z AUTO 17014KT 120V220 9999 BKN200 OVC270 09/06 Q0991 BLU
EBBL - Kleine-Brogel(Ba, Belgium
Afstand tot: ZZW 71 km
Gewijzigd: Feb 29 2020 8:25 am
Helder  
Helder  
   Wind: Zuiden 14.8 km/h
Wind: Zuiden 14.8 km/h
Temperatuur: 9°C
Voelt als: 7°C
Dauwpunt: 5°C
Vochtigheid: 76%
Barometer: 993 hPa
Bewolking: Helder
Zicht: meer dan 10 km
Bewolking: Helder
EBBL 290725Z AUTO 18008KT 9999 NCD 09/05 Q0993 BLU

Script ontwikkeld door  Saratoga-weather.org Aangepast voor de template door  Weerstation Leuven

U vindt ons ook hier:

UK Metoffice

Weather Underground